sensor_id;sensor_type;location;lat;lon;timestamp;P1;P2;P0
47711;PMS7003;57457;51.634;5.886;2023-07-13T09:15:02;6.25;7.2;5.02
47711;PMS7003;57457;51.634;5.886;2023-07-13T09:41:41;5.53;6.66;4.59
47711;PMS7003;57457;51.634;5.886;2023-07-13T09:55:01;3.6;6.22;4.59
47711;PMS7003;57457;51.634;5.886;2023-07-13T10:21:41;2.76;5.02;3.71
47711;PMS7003;57457;51.634;5.886;2023-07-13T10:35:01;2.88;5.68;4.26
47711;PMS7003;57457;51.634;5.886;2023-07-13T10:48:21;3.36;4.04;3.28
47711;PMS7003;57457;51.634;5.886;2023-07-13T11:01:41;2.04;4.7;2.95
47711;PMS7003;57457;51.634;5.886;2023-07-13T11:28:20;1.92;3.5;2.52
47711;PMS7003;57457;51.634;5.886;2023-07-13T11:41:40;0.72;3.93;2.95
47711;PMS7003;57457;51.634;5.886;2023-07-13T12:08:20;3.6;5.68;4.15
47711;PMS7003;57457;51.634;5.886;2023-07-13T12:35:00;3.6;6.11;4.59
47711;PMS7003;57457;51.634;5.886;2023-07-13T12:48:19;5.53;7.75;5.46
47711;PMS7003;57457;51.634;5.886;2023-07-13T13:01:39;4.09;6.88;4.91
47711;PMS7003;57457;51.634;5.886;2023-07-13T13:41:39;0.84;3.93;2.62
47711;PMS7003;57457;51.634;5.886;2023-07-13T13:54:59;3.85;4.8;3.28
47711;PMS7003;57457;51.634;5.886;2023-07-13T14:21:39;0.72;3.82;2.95
47711;PMS7003;57457;51.634;5.886;2023-07-13T14:34:58;1.56;4.59;3.28
47711;PMS7003;57457;51.634;5.886;2023-07-13T14:48:18;3.36;4.59;3.28
47711;PMS7003;57457;51.634;5.886;2023-07-13T15:14:58;2.28;3.71;2.52
47711;PMS7003;57457;51.634;5.886;2023-07-13T15:28:18;2.4;4.48;3.17
47711;PMS7003;57457;51.634;5.886;2023-07-13T15:41:38;1.8;4.37;3.06
47711;PMS7003;57457;51.634;5.886;2023-07-13T15:54:58;0.6;3.61;2.41
47711;PMS7003;57457;51.634;5.886;2023-07-13T16:08:18;0.01;2.95;2.41
47711;PMS7003;57457;51.634;5.886;2023-07-13T16:21:37;0.72;3.71;2.52
47711;PMS7003;57457;51.634;5.886;2023-07-13T16:34:57;1.44;4.37;3.28
47711;PMS7003;57457;51.634;5.886;2023-07-13T16:48:17;1.2;3.82;2.95
47711;PMS7003;57457;51.634;5.886;2023-07-13T17:01:37;2.16;4.15;2.84
47711;PMS7003;57457;51.634;5.886;2023-07-13T17:14:57;4.33;3.93;2.84
47711;PMS7003;57457;51.634;5.886;2023-07-13T17:28:17;1.32;4.04;2.73
47711;PMS7003;57457;51.634;5.886;2023-07-13T17:41:37;0.12;3.28;2.3
47711;PMS7003;57457;51.634;5.886;2023-07-13T17:54:56;1.32;3.28;2.19
47711;PMS7003;57457;51.634;5.886;2023-07-13T18:08:16;3.12;4.04;2.84
47711;PMS7003;57457;51.634;5.886;2023-07-13T18:21:36;0.96;3.93;3.17
47711;PMS7003;57457;51.634;5.886;2023-07-13T18:34:56;2.76;4.59;3.17
47711;PMS7003;57457;51.634;5.886;2023-07-13T18:48:16;2.28;4.7;3.28
47711;PMS7003;57457;51.634;5.886;2023-07-13T19:01:36;2.88;3.71;2.62
47711;PMS7003;57457;51.634;5.886;2023-07-13T19:14:56;2.28;3.71;2.73
47711;PMS7003;57457;51.634;5.886;2023-07-13T19:28:15;1.2;4.04;2.84
47711;PMS7003;57457;51.634;5.886;2023-07-13T19:41:35;1.08;3.93;2.95
47711;PMS7003;57457;51.634;5.886;2023-07-13T19:54:55;2.52;4.8;3.71
47711;PMS7003;57457;51.634;5.886;2023-07-13T20:08:15;2.4;5.02;3.71
47711;PMS7003;57457;51.634;5.886;2023-07-13T20:21:35;2.64;5.68;3.71
47711;PMS7003;57457;51.634;5.886;2023-07-13T20:34:55;2.76;5.68;4.15
47711;PMS7003;57457;51.634;5.886;2023-07-13T20:48:15;3.0;5.68;4.26
47711;PMS7003;57457;51.634;5.886;2023-07-13T21:01:35;4.45;7.09;5.13
47711;PMS7003;57457;51.634;5.886;2023-07-13T21:14:54;4.93;7.2;5.24
47711;PMS7003;57457;51.634;5.886;2023-07-13T21:28:14;4.69;7.53;5.46
47711;PMS7003;57457;51.634;5.886;2023-07-13T21:41:34;5.17;7.97;6.0
47711;PMS7003;57457;51.634;5.886;2023-07-13T21:54:54;5.53;7.75;5.9
47711;PMS7003;57457;51.634;5.886;2023-07-13T22:08:14;7.81;10.36;7.53
47711;PMS7003;57457;51.634;5.886;2023-07-13T22:21:34;8.77;11.13;7.97
47711;PMS7003;57457;51.634;5.886;2023-07-13T22:34:53;10.21;12.54;8.95
47711;PMS7003;57457;51.634;5.886;2023-07-13T22:48:13;5.53;8.08;6.22
47711;PMS7003;57457;51.634;5.886;2023-07-13T23:01:33;9.25;9.49;6.55
47711;PMS7003;57457;51.634;5.886;2023-07-13T23:14:53;12.73;11.56;8.08
47711;PMS7003;57457;51.634;5.886;2023-07-13T23:28:13;12.73;13.74;9.82
47711;PMS7003;57457;51.634;5.886;2023-07-13T23:41:33;10.45;12.44;9.06
47711;PMS7003;57457;51.634;5.886;2023-07-13T23:54:53;10.81;12.76;9.27
